sensor_id;sensor_type;location;lat;lon;timestamp;temperature;humidity
36498;DHT22;22513;51.222;6.480;2024-01-15T00:01:16;19.70;45.80
36498;DHT22;22513;51.222;6.480;2024-01-15T00:03:42;19.70;45.80
36498;DHT22;22513;51.222;6.480;2024-01-15T00:06:08;19.70;45.80
36498;DHT22;22513;51.222;6.480;2024-01-15T00:08:33;19.70;45.90
36498;DHT22;22513;51.222;6.480;2024-01-15T00:10:59;19.70;45.80
36498;DHT22;22513;51.222;6.480;2024-01-15T00:13:24;19.70;45.90
36498;DHT22;22513;51.222;6.480;2024-01-15T00:15:50;19.70;45.80
36498;DHT22;22513;51.222;6.480;2024-01-15T00:18:16;19.70;45.80
36498;DHT22;22513;51.222;6.480;2024-01-15T00:20:41;19.70;45.90
36498;DHT22;22513;51.222;6.480;2024-01-15T00:23:07;19.70;45.80
36498;DHT22;22513;51.222;6.480;2024-01-15T00:25:32;19.70;45.80
36498;DHT22;22513;51.222;6.480;2024-01-15T00:27:58;19.70;45.80
36498;DHT22;22513;51.222;6.480;2024-01-15T00:30:23;19.70;45.80
36498;DHT22;22513;51.222;6.480;2024-01-15T00:32:49;19.70;45.80
36498;DHT22;22513;51.222;6.480;2024-01-15T00:35:14;19.70;45.80
36498;DHT22;22513;51.222;6.480;2024-01-15T00:37:40;19.70;45.90
36498;DHT22;22513;51.222;6.480;2024-01-15T00:40:06;19.70;45.80
36498;DHT22;22513;51.222;6.480;2024-01-15T00:42:33;19.70;45.80
36498;DHT22;22513;51.222;6.480;2024-01-15T00:44:59;19.70;45.80
36498;DHT22;22513;51.222;6.480;2024-01-15T00:47:25;19.70;45.90
36498;DHT22;22513;51.222;6.480;2024-01-15T00:49:51;19.70;45.80
36498;DHT22;22513;51.222;6.480;2024-01-15T00:52:16;19.70;45.90
36498;DHT22;22513;51.222;6.480;2024-01-15T00:54:42;19.70;46.00
36498;DHT22;22513;51.222;6.480;2024-01-15T00:57:07;19.70;45.90
36498;DHT22;22513;51.222;6.480;2024-01-15T00:59:33;19.70;45.90
36498;DHT22;22513;51.222;6.480;2024-01-15T01:01:58;19.70;45.90
36498;DHT22;22513;51.222;6.480;2024-01-15T01:04:24;19.70;45.90
36498;DHT22;22513;51.222;6.480;2024-01-15T01:06:50;19.70;45.90
36498;DHT22;22513;51.222;6.480;2024-01-15T01:09:15;19.70;45.90
36498;DHT22;22513;51.222;6.480;2024-01-15T01:11:41;19.70;45.90
36498;DHT22;22513;51.222;6.480;2024-01-15T01:14:06;19.70;45.90
36498;DHT22;22513;51.222;6.480;2024-01-15T01:16:32;19.70;45.90
36498;DHT22;22513;51.222;6.480;2024-01-15T01:19:06;19.70;45.90
36498;DHT22;22513;51.222;6.480;2024-01-15T01:21:33;19.70;46.00
36498;DHT22;22513;51.222;6.480;2024-01-15T01:23:59;19.70;45.90
36498;DHT22;22513;51.222;6.480;2024-01-15T01:26:24;19.70;46.00
36498;DHT22;22513;51.222;6.480;2024-01-15T01:28:50;19.70;46.00
36498;DHT22;22513;51.222;6.480;2024-01-15T01:31:15;19.70;45.90
36498;DHT22;22513;51.222;6.480;2024-01-15T01:33:42;19.70;45.90
36498;DHT22;22513;51.222;6.480;2024-01-15T01:36:10;19.70;45.90
36498;DHT22;22513;51.222;6.480;2024-01-15T01:38:37;19.70;46.60
36498;DHT22;22513;51.222;6.480;2024-01-15T01:41:03;19.70;45.90
36498;DHT22;22513;51.222;6.480;2024-01-15T01:43:28;19.70;45.90
36498;DHT22;22513;51.222;6.480;2024-01-15T01:45:56;19.70;45.90
36498;DHT22;22513;51.222;6.480;2024-01-15T01:48:23;19.70;45.90
36498;DHT22;22513;51.222;6.480;2024-01-15T01:50:50;19.70;45.90
36498;DHT22;22513;51.222;6.480;2024-01-15T01:53:16;19.70;45.90
36498;DHT22;22513;51.222;6.480;2024-01-15T01:55:41;19.70;46.00
36498;DHT22;22513;51.222;6.480;2024-01-15T01:58:07;19.70;45.90
36498;DHT22;22513;51.222;6.480;2024-01-15T02:00:33;19.70;46.00
36498;DHT22;22513;51.222;6.480;2024-01-15T02:03:00;19.70;45.90
36498;DHT22;22513;51.222;6.480;2024-01-15T02:05:26;19.70;46.00
36498;DHT22;22513;51.222;6.480;2024-01-15T02:07:53;19.70;46.00
36498;DHT22;22513;51.222;6.480;2024-01-15T02:10:18;19.70;46.00
36498;DHT22;22513;51.222;6.480;2024-01-15T02:12:44;19.70;46.00
36498;DHT22;22513;51.222;6.480;2024-01-15T02:15:10;19.70;46.00
36498;DHT22;22513;51.222;6.480;2024-01-15T02:17:59;19.70;46.00
36498;DHT22;22513;51.222;6.480;2024-01-15T02:20:25;19.70;46.00
36498;DHT22;22513;51.222;6.480;2024-01-15T02:22:51;19.70;46.00
36498;DHT22;22513;51.222;6.480;2024-01-15T02:25:18;19.70;46.00
36498;DHT22;22513;51.222;6.480;2024-01-15T02:27:44;19.70;46.00
36498;DHT22;22513;51.222;6.480;2024-01-15T02:30:12;19.70;46.00
36498;DHT22;22513;51.222;6.480;2024-01-15T02:32:38;19.70;46.00
36498;DHT22;22513;51.222;6.480;2024-01-15T02:35:04;19.70;46.00
36498;DHT22;22513;51.222;6.480;2024-01-15T02:37:29;19.70;46.00
36498;DHT22;22513;51.222;6.480;2024-01-15T02:39:55;19.70;46.00
36498;DHT22;22513;51.222;6.480;2024-01-15T02:42:20;19.70;46.00
36498;DHT22;22513;51.222;6.480;2024-01-15T02:44:49;19.70;46.00
36498;DHT22;22513;51.222;6.480;2024-01-15T02:47:15;19.70;46.00
36498;DHT22;22513;51.222;6.480;2024-01-15T02:49:40;19.70;46.00
36498;DHT22;22513;51.222;6.480;2024-01-15T02:52:06;19.70;46.00
36498;DHT22;22513;51.222;6.480;2024-01-15T02:54:32;19.70;46.00
36498;DHT22;22513;51.222;6.480;2024-01-15T02:56:57;19.70;46.00
36498;DHT22;22513;51.222;6.480;2024-01-15T02:59:23;19.70;46.00
36498;DHT22;22513;51.222;6.480;2024-01-15T03:01:48;19.70;46.00
36498;DHT22;22513;51.222;6.480;2024-01-15T03:04:14;19.70;46.00
36498;DHT22;22513;51.222;6.480;2024-01-15T03:06:40;19.70;46.10
36498;DHT22;22513;51.222;6.480;2024-01-15T03:09:05;19.70;46.10
36498;DHT22;22513;51.222;6.480;2024-01-15T03:11:37;19.70;46.10
36498;DHT22;22513;51.222;6.480;2024-01-15T03:14:04;19.70;46.10
36498;DHT22;22513;51.222;6.480;2024-01-15T03:16:29;19.70;46.10
36498;DHT22;22513;51.222;6.480;2024-01-15T03:18:55;19.70;46.10
36498;DHT22;22513;51.222;6.480;2024-01-15T03:21:20;19.70;46.10
36498;DHT22;22513;51.222;6.480;2024-01-15T03:23:46;19.70;46.10
36498;DHT22;22513;51.222;6.480;2024-01-15T03:26:11;19.70;46.10
36498;DHT22;22513;51.222;6.480;2024-01-15T03:28:37;19.70;46.10
36498;DHT22;22513;51.222;6.480;2024-01-15T03:31:03;19.70;46.10
36498;DHT22;22513;51.222;6.480;2024-01-15T03:33:28;19.70;46.10
36498;DHT22;22513;51.222;6.480;2024-01-15T03:35:54;19.70;46.10
36498;DHT22;22513;51.222;6.480;2024-01-15T03:38:19;19.70;46.10
36498;DHT22;22513;51.222;6.480;2024-01-15T03:40:45;19.70;46.10
36498;DHT22;22513;51.222;6.480;2024-01-15T03:43:10;19.70;46.10
36498;DHT22;22513;51.222;6.480;2024-01-15T03:45:36;19.70;46.10
36498;DHT22;22513;51.222;6.480;2024-01-15T03:48:02;19.70;46.10
36498;DHT22;22513;51.222;6.480;2024-01-15T03:50:27;19.70;46.10
36498;DHT22;22513;51.222;6.480;2024-01-15T03:52:53;19.70;46.10
36498;DHT22;22513;51.222;6.480;2024-01-15T03:55:18;19.70;46.10
36498;DHT22;22513;51.222;6.480;2024-01-15T03:57:44;19.70;46.20
36498;DHT22;22513;51.222;6.480;2024-01-15T04:00:10;19.70;46.10
36498;DHT22;22513;51.222;6.480;2024-01-15T04:02:36;19.70;46.10
36498;DHT22;22513;51.222;6.480;2024-01-15T04:05:02;19.70;46.10
36498;DHT22;22513;51.222;6.480;2024-01-15T04:07:27;19.70;46.80
36498;DHT22;22513;51.222;6.480;2024-01-15T04:09:53;19.70;46.10
36498;DHT22;22513;51.222;6.480;2024-01-15T04:12:18;19.70;46.10
36498;DHT22;22513;51.222;6.480;2024-01-15T04:14:44;19.70;46.10
36498;DHT22;22513;51.222;6.480;2024-01-15T04:17:10;19.70;46.10
36498;DHT22;22513;51.222;6.480;2024-01-15T04:19:35;19.70;46.10
36498;DHT22;22513;51.222;6.480;2024-01-15T04:22:01;19.70;46.10
36498;DHT22;22513;51.222;6.480;2024-01-15T04:24:27;19.70;46.20
36498;DHT22;22513;51.222;6.480;2024-01-15T04:26:52;19.70;46.10
36498;DHT22;22513;51.222;6.480;2024-01-15T04:29:18;19.70;46.20
36498;DHT22;22513;51.222;6.480;2024-01-15T04:31:43;19.70;46.20
36498;DHT22;22513;51.222;6.480;2024-01-15T04:34:09;19.70;46.20
36498;DHT22;22513;51.222;6.480;2024-01-15T04:36:41;19.70;46.20
36498;DHT22;22513;51.222;6.480;2024-01-15T04:39:07;19.70;46.20
36498;DHT22;22513;51.222;6.480;2024-01-15T04:41:33;19.70;46.20
36498;DHT22;22513;51.222;6.480;2024-01-15T04:43:58;19.70;46.20
36498;DHT22;22513;51.222;6.480;2024-01-15T04:46:25;19.70;46.20
36498;DHT22;22513;51.222;6.480;2024-01-15T04:48:51;19.70;46.20
36498;DHT22;22513;51.222;6.480;2024-01-15T04:51:16;19.70;46.20
36498;DHT22;22513;51.222;6.480;2024-01-15T04:53:42;19.70;46.20
36498;DHT22;22513;51.222;6.480;2024-01-15T04:56:08;19.70;46.20
36498;DHT22;22513;51.222;6.480;2024-01-15T04:58:33;19.70;46.20
36498;DHT22;22513;51.222;6.480;2024-01-15T05:00:59;19.70;46.20
36498;DHT22;22513;51.222;6.480;2024-01-15T05:03:24;19.70;46.20
36498;DHT22;22513;51.222;6.480;2024-01-15T05:05:50;19.70;46.20
36498;DHT22;22513;51.222;6.480;2024-01-15T05:08:15;19.70;46.20
36498;DHT22;22513;51.222;6.480;2024-01-15T05:10:41;19.70;46.20
36498;DHT22;22513;51.222;6.480;2024-01-15T05:13:07;19.70;46.20
36498;DHT22;22513;51.222;6.480;2024-01-15T05:15:32;19.70;46.10
36498;DHT22;22513;51.222;6.480;2024-01-15T05:17:58;19.70;46.10
36498;DHT22;22513;51.222;6.480;2024-01-15T05:20:23;19.70;46.10
36498;DHT22;22513;51.222;6.480;2024-01-15T05:22:49;19.70;46.00
36498;DHT22;22513;51.222;6.480;2024-01-15T05:25:14;19.70;46.00
36498;DHT22;22513;51.222;6.480;2024-01-15T05:27:40;19.70;46.00
36498;DHT22;22513;51.222;6.480;2024-01-15T05:30:06;19.70;45.90
36498;DHT22;22513;51.222;6.480;2024-01-15T05:32:32;19.70;45.90
36498;DHT22;22513;51.222;6.480;2024-01-15T05:34:57;19.70;45.90
36498;DHT22;22513;51.222;6.480;2024-01-15T05:37:23;19.70;45.90
36498;DHT22;22513;51.222;6.480;2024-01-15T05:39:48;19.70;45.90
36498;DHT22;22513;51.222;6.480;2024-01-15T05:42:14;19.70;45.90
36498;DHT22;22513;51.222;6.480;2024-01-15T05:44:39;19.70;45.80
36498;DHT22;22513;51.222;6.480;2024-01-15T05:47:05;19.70;45.80
36498;DHT22;22513;51.222;6.480;2024-01-15T05:49:31;19.70;45.80
36498;DHT22;22513;51.222;6.480;2024-01-15T05:51:56;19.70;45.80
36498;DHT22;22513;51.222;6.480;2024-01-15T05:54:22;19.70;45.70
36498;DHT22;22513;51.222;6.480;2024-01-15T05:56:48;19.70;45.80
36498;DHT22;22513;51.222;6.480;2024-01-15T05:59:13;19.80;45.80
36498;DHT22;22513;51.222;6.480;2024-01-15T06:01:39;19.70;45.70
36498;DHT22;22513;51.222;6.480;2024-01-15T06:04:04;19.80;45.80
36498;DHT22;22513;51.222;6.480;2024-01-15T06:06:30;19.80;45.70
36498;DHT22;22513;51.222;6.480;2024-01-15T06:08:56;19.70;45.70
36498;DHT22;22513;51.222;6.480;2024-01-15T06:11:29;19.70;45.70
36498;DHT22;22513;51.222;6.480;2024-01-15T06:13:55;19.70;45.60
36498;DHT22;22513;51.222;6.480;2024-01-15T06:16:21;19.70;45.70
36498;DHT22;22513;51.222;6.480;2024-01-15T06:18:47;19.70;45.60
36498;DHT22;22513;51.222;6.480;2024-01-15T06:21:12;19.80;45.70
36498;DHT22;22513;51.222;6.480;2024-01-15T06:23:39;19.70;45.60
36498;DHT22;22513;51.222;6.480;2024-01-15T06:26:05;19.80;45.70
36498;DHT22;22513;51.222;6.480;2024-01-15T06:28:31;19.80;45.60
36498;DHT22;22513;51.222;6.480;2024-01-15T06:30:57;19.70;45.60
36498;DHT22;22513;51.222;6.480;2024-01-15T06:33:23;19.80;45.60
36498;DHT22;22513;51.222;6.480;2024-01-15T06:35:49;19.70;45.50
36498;DHT22;22513;51.222;6.480;2024-01-15T06:38:15;19.80;46.30
36498;DHT22;22513;51.222;6.480;2024-01-15T06:40:41;19.70;45.50
36498;DHT22;22513;51.222;6.480;2024-01-15T06:43:14;19.80;45.50
36498;DHT22;22513;51.222;6.480;2024-01-15T06:45:40;19.70;45.50
36498;DHT22;22513;51.222;6.480;2024-01-15T06:48:06;19.70;45.50
36498;DHT22;22513;51.222;6.480;2024-01-15T06:50:33;19.80;45.50
36498;DHT22;22513;51.222;6.480;2024-01-15T06:52:58;19.80;45.50
36498;DHT22;22513;51.222;6.480;2024-01-15T06:55:24;19.80;45.50
36498;DHT22;22513;51.222;6.480;2024-01-15T06:57:51;19.80;45.50
36498;DHT22;22513;51.222;6.480;2024-01-15T07:00:17;19.80;45.50
36498;DHT22;22513;51.222;6.480;2024-01-15T07:02:43;19.80;45.50
36498;DHT22;22513;51.222;6.480;2024-01-15T07:05:08;19.80;45.50
36498;DHT22;22513;51.222;6.480;2024-01-15T07:07:34;19.80;45.50
36498;DHT22;22513;51.222;6.480;2024-01-15T07:10:00;19.80;45.50
36498;DHT22;22513;51.222;6.480;2024-01-15T07:12:26;19.80;45.50
36498;DHT22;22513;51.222;6.480;2024-01-15T07:14:52;19.80;45.50
36498;DHT22;22513;51.222;6.480;2024-01-15T07:17:18;19.80;45.50
36498;DHT22;22513;51.222;6.480;2024-01-15T07:19:43;19.80;45.40
36498;DHT22;22513;51.222;6.480;2024-01-15T07:22:09;19.80;45.50
36498;DHT22;22513;51.222;6.480;2024-01-15T07:24:35;19.80;45.50
36498;DHT22;22513;51.222;6.480;2024-01-15T07:27:01;19.80;45.40
36498;DHT22;22513;51.222;6.480;2024-01-15T07:29:26;19.80;45.40
36498;DHT22;22513;51.222;6.480;2024-01-15T07:31:52;19.80;45.50
36498;DHT22;22513;51.222;6.480;2024-01-15T07:34:18;19.80;45.40
36498;DHT22;22513;51.222;6.480;2024-01-15T07:36:44;19.80;45.40
36498;DHT22;22513;51.222;6.480;2024-01-15T07:39:10;19.80;45.40
36498;DHT22;22513;51.222;6.480;2024-01-15T07:41:35;19.80;45.40
36498;DHT22;22513;51.222;6.480;2024-01-15T07:44:02;19.80;45.40
36498;DHT22;22513;51.222;6.480;2024-01-15T07:46:28;19.80;45.40
36498;DHT22;22513;51.222;6.480;2024-01-15T07:48:54;19.80;45.40
36498;DHT22;22513;51.222;6.480;2024-01-15T07:51:25;19.80;45.40
36498;DHT22;22513;51.222;6.480;2024-01-15T07:53:53;19.80;44.80
36498;DHT22;22513;51.222;6.480;2024-01-15T07:56:19;19.80;45.50
36498;DHT22;22513;51.222;6.480;2024-01-15T07:58:44;19.80;45.60
36498;DHT22;22513;51.222;6.480;2024-01-15T08:01:10;19.80;45.70
36498;DHT22;22513;51.222;6.480;2024-01-15T08:03:36;19.80;45.80
36498;DHT22;22513;51.222;6.480;2024-01-15T08:06:02;19.80;45.90
36498;DHT22;22513;51.222;6.480;2024-01-15T08:08:27;19.70;45.80
36498;DHT22;22513;51.222;6.480;2024-01-15T08:10:53;19.70;45.80
36498;DHT22;22513;51.222;6.480;2024-01-15T08:13:19;19.70;45.80
36498;DHT22;22513;51.222;6.480;2024-01-15T08:15:45;19.70;45.80
36498;DHT22;22513;51.222;6.480;2024-01-15T08:18:11;19.70;45.80
36498;DHT22;22513;51.222;6.480;2024-01-15T08:20:37;19.80;45.90
36498;DHT22;22513;51.222;6.480;2024-01-15T08:23:03;19.70;45.80
36498;DHT22;22513;51.222;6.480;2024-01-15T08:25:29;19.70;45.80
36498;DHT22;22513;51.222;6.480;2024-01-15T08:27:56;19.70;45.80
36498;DHT22;22513;51.222;6.480;2024-01-15T08:30:23;19.70;45.80
36498;DHT22;22513;51.222;6.480;2024-01-15T08:32:55;19.70;45.70
36498;DHT22;22513;51.222;6.480;2024-01-15T08:35:21;19.70;45.80
36498;DHT22;22513;51.222;6.480;2024-01-15T08:37:52;19.80;45.80
36498;DHT22;22513;51.222;6.480;2024-01-15T08:40:17;19.70;45.70
36498;DHT22;22513;51.222;6.480;2024-01-15T08:42:43;19.80;45.80
36498;DHT22;22513;51.222;6.480;2024-01-15T08:45:09;19.70;45.70
36498;DHT22;22513;51.222;6.480;2024-01-15T08:47:35;19.70;45.70
36498;DHT22;22513;51.222;6.480;2024-01-15T08:50:02;19.70;45.70
36498;DHT22;22513;51.222;6.480;2024-01-15T08:52:28;19.80;45.70
36498;DHT22;22513;51.222;6.480;2024-01-15T08:54:55;19.70;45.70
36498;DHT22;22513;51.222;6.480;2024-01-15T08:57:20;19.70;45.70
36498;DHT22;22513;51.222;6.480;2024-01-15T08:59:47;19.70;45.70
36498;DHT22;22513;51.222;6.480;2024-01-15T09:02:13;19.80;45.70
36498;DHT22;22513;51.222;6.480;2024-01-15T09:04:38;19.80;45.70
36498;DHT22;22513;51.222;6.480;2024-01-15T09:07:04;19.80;45.70
36498;DHT22;22513;51.222;6.480;2024-01-15T09:09:30;19.80;45.70
36498;DHT22;22513;51.222;6.480;2024-01-15T09:11:55;19.80;45.70
36498;DHT22;22513;51.222;6.480;2024-01-15T09:14:21;19.80;45.70
36498;DHT22;22513;51.222;6.480;2024-01-15T09:16:50;19.80;45.70
36498;DHT22;22513;51.222;6.480;2024-01-15T09:19:16;19.80;45.70
36498;DHT22;22513;51.222;6.480;2024-01-15T09:21:42;19.80;45.70
36498;DHT22;22513;51.222;6.480;2024-01-15T09:24:07;19.80;45.70
36498;DHT22;22513;51.222;6.480;2024-01-15T09:26:33;19.80;45.70
36498;DHT22;22513;51.222;6.480;2024-01-15T09:28:58;19.80;45.60
36498;DHT22;22513;51.222;6.480;2024-01-15T09:31:24;19.80;45.60
36498;DHT22;22513;51.222;6.480;2024-01-15T09:33:50;19.80;45.60
36498;DHT22;22513;51.222;6.480;2024-01-15T09:36:22;19.80;45.60
36498;DHT22;22513;51.222;6.480;2024-01-15T09:38:51;19.80;45.60
36498;DHT22;22513;51.222;6.480;2024-01-15T09:41:16;19.80;45.60
36498;DHT22;22513;51.222;6.480;2024-01-15T09:43:42;19.80;45.50
36498;DHT22;22513;51.222;6.480;2024-01-15T09:46:08;19.80;45.50
36498;DHT22;22513;51.222;6.480;2024-01-15T09:48:34;19.90;45.60
36498;DHT22;22513;51.222;6.480;2024-01-15T09:51:01;19.80;46.30
36498;DHT22;22513;51.222;6.480;2024-01-15T09:53:27;19.90;45.70
36498;DHT22;22513;51.222;6.480;2024-01-15T09:55:53;19.90;45.70
36498;DHT22;22513;51.222;6.480;2024-01-15T09:58:19;19.90;45.60
36498;DHT22;22513;51.222;6.480;2024-01-15T10:00:47;19.90;45.60
36498;DHT22;22513;51.222;6.480;2024-01-15T10:03:15;19.90;45.60
36498;DHT22;22513;51.222;6.480;2024-01-15T10:05:41;19.90;45.60
36498;DHT22;22513;51.222;6.480;2024-01-15T10:08:07;19.90;45.50
36498;DHT22;22513;51.222;6.480;2024-01-15T10:10:32;19.90;45.60
36498;DHT22;22513;51.222;6.480;2024-01-15T10:12:58;19.90;45.60
36498;DHT22;22513;51.222;6.480;2024-01-15T10:15:28;19.90;45.50
36498;DHT22;22513;51.222;6.480;2024-01-15T10:17:54;19.90;45.50
36498;DHT22;22513;51.222;6.480;2024-01-15T10:20:20;19.90;45.50
36498;DHT22;22513;51.222;6.480;2024-01-15T10:22:48;19.90;45.50
36498;DHT22;22513;51.222;6.480;2024-01-15T10:25:14;19.90;45.50
36498;DHT22;22513;51.222;6.480;2024-01-15T10:27:43;19.90;45.50
36498;DHT22;22513;51.222;6.480;2024-01-15T10:30:09;19.90;45.50
36498;DHT22;22513;51.222;6.480;2024-01-15T10:32:35;20.00;45.50
36498;DHT22;22513;51.222;6.480;2024-01-15T10:35:01;19.90;45.40
36498;DHT22;22513;51.222;6.480;2024-01-15T10:37:26;19.90;45.40
36498;DHT22;22513;51.222;6.480;2024-01-15T10:39:52;19.90;45.40
36498;DHT22;22513;51.222;6.480;2024-01-15T10:42:18;20.00;45.40
36498;DHT22;22513;51.222;6.480;2024-01-15T10:44:44;19.90;45.40
36498;DHT22;22513;51.222;6.480;2024-01-15T10:47:12;20.00;45.40
36498;DHT22;22513;51.222;6.480;2024-01-15T10:49:39;20.00;45.40
36498;DHT22;22513;51.222;6.480;2024-01-15T10:52:05;20.00;45.40
36498;DHT22;22513;51.222;6.480;2024-01-15T10:54:32;20.00;45.40
36498;DHT22;22513;51.222;6.480;2024-01-15T10:56:57;20.00;45.30
36498;DHT22;22513;51.222;6.480;2024-01-15T10:59:23;20.00;45.30
36498;DHT22;22513;51.222;6.480;2024-01-15T11:01:50;20.00;45.30
36498;DHT22;22513;51.222;6.480;2024-01-15T11:04:19;20.00;45.30
36498;DHT22;22513;51.222;6.480;2024-01-15T11:06:48;20.00;45.30
36498;DHT22;22513;51.222;6.480;2024-01-15T11:09:15;20.10;45.30
36498;DHT22;22513;51.222;6.480;2024-01-15T11:11:44;20.10;45.30
36498;DHT22;22513;51.222;6.480;2024-01-15T11:14:10;20.10;45.30
36498;DHT22;22513;51.222;6.480;2024-01-15T11:16:55;20.10;45.30
36498;DHT22;22513;51.222;6.480;2024-01-15T11:19:21;20.10;45.20
36498;DHT22;22513;51.222;6.480;2024-01-15T11:21:47;20.10;45.20
36498;DHT22;22513;51.222;6.480;2024-01-15T11:24:36;20.10;45.20
36498;DHT22;22513;51.222;6.480;2024-01-15T11:27:02;20.20;45.20
36498;DHT22;22513;51.222;6.480;2024-01-15T11:34:59;20.20;45.20
36498;DHT22;22513;51.222;6.480;2024-01-15T11:37:29;20.20;45.10
36498;DHT22;22513;51.222;6.480;2024-01-15T11:40:01;20.20;45.10
36498;DHT22;22513;51.222;6.480;2024-01-15T11:42:26;20.20;45.10
36498;DHT22;22513;51.222;6.480;2024-01-15T11:44:53;20.20;45.10
36498;DHT22;22513;51.222;6.480;2024-01-15T11:50:24;20.20;45.00
36498;DHT22;22513;51.222;6.480;2024-01-15T11:53:00;20.30;45.00
36498;DHT22;22513;51.222;6.480;2024-01-15T11:55:27;20.30;45.00
36498;DHT22;22513;51.222;6.480;2024-01-15T11:57:57;20.20;44.90
36498;DHT22;22513;51.222;6.480;2024-01-15T12:00:25;20.20;44.90
36498;DHT22;22513;51.222;6.480;2024-01-15T12:02:51;20.30;44.90
36498;DHT22;22513;51.222;6.480;2024-01-15T12:05:18;20.30;44.90
36498;DHT22;22513;51.222;6.480;2024-01-15T12:07:48;20.30;44.90
36498;DHT22;22513;51.222;6.480;2024-01-15T12:10:19;20.20;44.90
36498;DHT22;22513;51.222;6.480;2024-01-15T12:15:19;20.20;44.90
36498;DHT22;22513;51.222;6.480;2024-01-15T12:17:45;20.20;44.90
36498;DHT22;22513;51.222;6.480;2024-01-15T12:20:13;20.20;44.90
36498;DHT22;22513;51.222;6.480;2024-01-15T12:22:39;20.20;44.90
36498;DHT22;22513;51.222;6.480;2024-01-15T12:25:05;20.20;44.90
36498;DHT22;22513;51.222;6.480;2024-01-15T12:27:31;20.20;44.90
36498;DHT22;22513;51.222;6.480;2024-01-15T12:29:58;20.20;44.90
36498;DHT22;22513;51.222;6.480;2024-01-15T12:32:24;20.20;44.80
36498;DHT22;22513;51.222;6.480;2024-01-15T12:34:51;20.20;44.80
36498;DHT22;22513;51.222;6.480;2024-01-15T12:37:19;20.20;44.80
36498;DHT22;22513;51.222;6.480;2024-01-15T12:39:45;20.20;44.80
36498;DHT22;22513;51.222;6.480;2024-01-15T12:42:11;20.30;44.80
36498;DHT22;22513;51.222;6.480;2024-01-15T12:44:37;20.20;44.70
36498;DHT22;22513;51.222;6.480;2024-01-15T12:47:06;20.30;44.80
36498;DHT22;22513;51.222;6.480;2024-01-15T12:49:32;20.30;44.80
36498;DHT22;22513;51.222;6.480;2024-01-15T12:51:58;20.20;44.70
36498;DHT22;22513;51.222;6.480;2024-01-15T12:54:24;20.20;44.70
36498;DHT22;22513;51.222;6.480;2024-01-15T12:56:50;20.20;44.70
36498;DHT22;22513;51.222;6.480;2024-01-15T12:59:16;20.20;44.70
36498;DHT22;22513;51.222;6.480;2024-01-15T13:01:43;20.20;44.70
36498;DHT22;22513;51.222;6.480;2024-01-15T13:04:08;20.30;44.80
36498;DHT22;22513;51.222;6.480;2024-01-15T13:06:35;20.30;44.70
36498;DHT22;22513;51.222;6.480;2024-01-15T13:09:01;20.30;44.70
36498;DHT22;22513;51.222;6.480;2024-01-15T13:11:27;20.30;44.60
36498;DHT22;22513;51.222;6.480;2024-01-15T13:13:53;20.30;44.60
36498;DHT22;22513;51.222;6.480;2024-01-15T13:16:19;20.40;44.60
36498;DHT22;22513;51.222;6.480;2024-01-15T13:18:46;20.30;44.60
36498;DHT22;22513;51.222;6.480;2024-01-15T13:21:12;20.30;44.60
36498;DHT22;22513;51.222;6.480;2024-01-15T13:23:38;20.30;44.60
36498;DHT22;22513;51.222;6.480;2024-01-15T13:26:04;20.30;44.70
36498;DHT22;22513;51.222;6.480;2024-01-15T13:28:30;20.30;44.70
36498;DHT22;22513;51.222;6.480;2024-01-15T13:30:56;20.30;44.70
36498;DHT22;22513;51.222;6.480;2024-01-15T13:33:21;20.20;44.60
36498;DHT22;22513;51.222;6.480;2024-01-15T13:35:47;20.20;44.60
36498;DHT22;22513;51.222;6.480;2024-01-15T13:38:15;20.20;44.70
36498;DHT22;22513;51.222;6.480;2024-01-15T13:40:41;20.20;44.70
36498;DHT22;22513;51.222;6.480;2024-01-15T13:43:06;20.20;44.60
36498;DHT22;22513;51.222;6.480;2024-01-15T13:45:34;20.20;44.70
36498;DHT22;22513;51.222;6.480;2024-01-15T13:48:01;20.20;44.70
36498;DHT22;22513;51.222;6.480;2024-01-15T13:50:26;20.20;44.70
36498;DHT22;22513;51.222;6.480;2024-01-15T13:52:53;20.20;44.70
36498;DHT22;22513;51.222;6.480;2024-01-15T13:55:18;20.20;44.70
36498;DHT22;22513;51.222;6.480;2024-01-15T13:57:44;20.20;44.70
36498;DHT22;22513;51.222;6.480;2024-01-15T14:00:10;20.20;44.80
36498;DHT22;22513;51.222;6.480;2024-01-15T14:02:37;20.20;44.70
36498;DHT22;22513;51.222;6.480;2024-01-15T14:05:03;20.20;44.80
36498;DHT22;22513;51.222;6.480;2024-01-15T14:07:29;20.20;44.70
36498;DHT22;22513;51.222;6.480;2024-01-15T14:09:54;20.20;44.80
36498;DHT22;22513;51.222;6.480;2024-01-15T14:12:20;20.20;44.70
36498;DHT22;22513;51.222;6.480;2024-01-15T14:14:45;20.20;44.70
36498;DHT22;22513;51.222;6.480;2024-01-15T14:17:11;20.20;44.70
36498;DHT22;22513;51.222;6.480;2024-01-15T14:19:37;20.20;44.70
36498;DHT22;22513;51.222;6.480;2024-01-15T14:22:03;20.20;44.70
36498;DHT22;22513;51.222;6.480;2024-01-15T14:24:28;20.20;44.80
36498;DHT22;22513;51.222;6.480;2024-01-15T14:26:54;20.90;45.10
36498;DHT22;22513;51.222;6.480;2024-01-15T14:29:19;20.20;44.70
36498;DHT22;22513;51.222;6.480;2024-01-15T14:31:47;20.20;44.70
36498;DHT22;22513;51.222;6.480;2024-01-15T14:34:13;20.20;44.70
36498;DHT22;22513;51.222;6.480;2024-01-15T14:36:39;20.20;44.70
36498;DHT22;22513;51.222;6.480;2024-01-15T14:39:04;20.20;44.70
36498;DHT22;22513;51.222;6.480;2024-01-15T14:41:30;20.20;44.70
36498;DHT22;22513;51.222;6.480;2024-01-15T14:43:56;20.20;44.70
36498;DHT22;22513;51.222;6.480;2024-01-15T14:46:22;20.20;44.70
36498;DHT22;22513;51.222;6.480;2024-01-15T14:48:48;20.20;44.70
36498;DHT22;22513;51.222;6.480;2024-01-15T14:51:14;20.20;44.70
36498;DHT22;22513;51.222;6.480;2024-01-15T14:53:39;20.20;44.80
36498;DHT22;22513;51.222;6.480;2024-01-15T14:56:05;20.20;44.80
36498;DHT22;22513;51.222;6.480;2024-01-15T14:58:31;20.20;44.80
36498;DHT22;22513;51.222;6.480;2024-01-15T15:00:57;20.20;44.80
36498;DHT22;22513;51.222;6.480;2024-01-15T15:03:23;20.20;44.90
36498;DHT22;22513;51.222;6.480;2024-01-15T15:05:48;20.20;44.90
36498;DHT22;22513;51.222;6.480;2024-01-15T15:08:14;20.10;44.80
36498;DHT22;22513;51.222;6.480;2024-01-15T15:10:40;20.20;44.90
36498;DHT22;22513;51.222;6.480;2024-01-15T15:13:08;20.10;44.90
36498;DHT22;22513;51.222;6.480;2024-01-15T15:15:35;20.10;44.90
36498;DHT22;22513;51.222;6.480;2024-01-15T15:18:01;20.10;44.80
36498;DHT22;22513;51.222;6.480;2024-01-15T15:20:26;20.10;44.80
36498;DHT22;22513;51.222;6.480;2024-01-15T15:22:52;20.10;44.80
36498;DHT22;22513;51.222;6.480;2024-01-15T15:25:21;20.10;44.80
36498;DHT22;22513;51.222;6.480;2024-01-15T15:27:47;20.10;44.90
36498;DHT22;22513;51.222;6.480;2024-01-15T15:30:13;20.10;44.80
36498;DHT22;22513;51.222;6.480;2024-01-15T15:32:39;20.10;44.80
36498;DHT22;22513;51.222;6.480;2024-01-15T15:35:05;20.10;44.80